createdAt,value
2018-08-06T00:00:18.384Z,3.03
2018-08-06T00:02:47.528Z,4.97
2018-08-06T00:05:17.171Z,3.80
2018-08-06T00:07:46.368Z,5.23
2018-08-06T00:10:18.192Z,4.13
2018-08-06T00:12:47.406Z,4.93
2018-08-06T00:15:16.925Z,6.50
2018-08-06T00:17:46.127Z,9.93
2018-08-06T00:20:15.780Z,10.57
2018-08-06T00:22:45.126Z,8.97
2018-08-06T00:25:15.554Z,7.37
2018-08-06T00:27:45.269Z,11.47
2018-08-06T00:30:16.431Z,12.67
2018-08-06T00:32:46.461Z,12.57
2018-08-06T00:35:16.046Z,10.83
2018-08-06T00:37:45.991Z,11.07
2018-08-06T00:40:17.909Z,15.33
2018-08-06T00:42:47.720Z,16.90
2018-08-06T00:45:18.876Z,17.43
2018-08-06T00:47:48.691Z,15.53
2018-08-06T00:50:18.101Z,15.77
2018-08-06T00:52:47.295Z,12.80
2018-08-06T00:55:19.796Z,11.00
2018-08-06T00:57:48.989Z,12.13
2018-08-06T01:00:19.932Z,10.23
2018-08-06T01:02:49.210Z,9.87
2018-08-06T01:05:18.600Z,8.60
2018-08-06T01:07:47.873Z,9.07
2018-08-06T01:10:18.373Z,13.63
2018-08-06T01:12:47.613Z,10.97
2018-08-06T01:15:18.618Z,14.17
2018-08-06T01:17:47.851Z,15.07
2018-08-06T01:20:17.038Z,8.73
2018-08-06T01:22:46.568Z,11.93
2018-08-06T01:25:15.939Z,13.03
2018-08-06T01:27:45.141Z,12.70
2018-08-06T01:30:15.218Z,12.47
2018-08-06T01:32:44.480Z,6.87
2018-08-06T01:35:13.779Z,14.27
2018-08-06T01:37:42.952Z,10.77
2018-08-06T01:40:14.600Z,4.30
2018-08-06T01:42:44.390Z,3.33
2018-08-06T01:45:15.083Z,2.93
2018-08-06T01:47:43.974Z,12.33
2018-08-06T01:50:14.246Z,5.10
2018-08-06T01:52:43.418Z,5.47
2018-08-06T01:55:12.663Z,3.40
2018-08-06T01:57:41.954Z,3.93
2018-08-06T02:00:14.212Z,4.10
2018-08-06T02:02:43.409Z,5.00
2018-08-06T02:05:12.744Z,10.07
2018-08-06T02:07:42.738Z,7.50
2018-08-06T02:10:14.260Z,6.70
2018-08-06T02:12:43.969Z,6.60
2018-08-06T02:15:13.628Z,6.87
2018-08-06T02:17:42.851Z,9.50
2018-08-06T02:20:13.814Z,8.63
2018-08-06T02:22:43.308Z,9.10
2018-08-06T02:25:12.536Z,8.13
2018-08-06T02:27:42.115Z,10.73
2018-08-06T02:30:13.164Z,11.20
2018-08-06T02:32:42.402Z,10.70
2018-08-06T02:35:13.390Z,9.57
2018-08-06T02:37:43.072Z,10.07
2018-08-06T02:40:17.971Z,10.43
2018-08-06T02:42:47.468Z,10.60
2018-08-06T02:45:17.377Z,11.57
2018-08-06T02:47:46.677Z,12.03
2018-08-06T02:50:15.943Z,11.00
2018-08-06T02:52:45.377Z,10.80
2018-08-06T02:55:15.700Z,10.03
2018-08-06T02:57:44.926Z,9.83
2018-08-06T03:00:15.911Z,11.83
2018-08-06T03:02:46.089Z,12.47
2018-08-06T03:05:16.684Z,13.43
2018-08-06T03:07:46.313Z,19.00
2018-08-06T03:10:15.798Z,21.87
2018-08-06T03:12:45.948Z,21.03
2018-08-06T03:15:15.149Z,20.73
2018-08-06T03:17:44.419Z,15.80
2018-08-06T03:20:14.173Z,13.57
2018-08-06T03:22:43.364Z,13.63
2018-08-06T03:25:14.021Z,14.17
2018-08-06T03:27:44.002Z,14.70
2018-08-06T03:30:15.033Z,13.00
2018-08-06T03:32:45.376Z,14.10
2018-08-06T03:35:14.705Z,12.03
2018-08-06T03:37:44.025Z,12.70
2018-08-06T03:40:13.246Z,14.33
2018-08-06T03:42:42.437Z,13.50
2018-08-06T03:45:12.371Z,16.33
2018-08-06T03:47:42.594Z,18.23
2018-08-06T03:50:12.838Z,15.60
2018-08-06T03:52:42.358Z,16.60
2018-08-06T03:55:12.231Z,14.93
2018-08-06T03:57:41.775Z,17.57
2018-08-06T04:00:12.754Z,15.50
2018-08-06T04:02:42.599Z,14.10
2018-08-06T04:05:12.923Z,14.70
2018-08-06T04:07:42.193Z,14.67
2018-08-06T04:10:14.332Z,14.83
2018-08-06T04:12:43.535Z,18.40
2018-08-06T04:15:12.904Z,17.00
2018-08-06T04:17:42.820Z,16.57
2018-08-06T04:20:12.833Z,18.80
2018-08-06T04:22:43.083Z,16.83
2018-08-06T04:25:12.323Z,17.57
2018-08-06T04:27:41.549Z,16.57
2018-08-06T04:30:14.015Z,20.87
2018-08-06T04:32:44.538Z,20.53
2018-08-06T04:35:13.965Z,22.20
2018-08-06T04:37:43.859Z,21.57
2018-08-06T04:40:13.653Z,21.93
2018-08-06T04:42:43.411Z,22.00
2018-08-06T04:45:12.782Z,22.23
2018-08-06T04:47:42.098Z,24.50
2018-08-06T04:50:13.024Z,24.37
2018-08-06T04:52:42.779Z,23.03
2018-08-06T04:55:13.376Z,23.43
2018-08-06T04:57:42.653Z,21.57
2018-08-06T05:00:13.638Z,22.17
2018-08-06T05:02:43.433Z,21.87
2018-08-06T05:05:12.855Z,21.63
2018-08-06T05:07:42.109Z,22.73
2018-08-06T05:10:11.278Z,21.03
2018-08-06T05:12:40.577Z,21.13
2018-08-06T05:15:09.771Z,19.97
2018-08-06T05:17:38.873Z,19.00
2018-08-06T05:20:08.117Z,18.33
2018-08-06T05:22:37.329Z,18.20
2018-08-06T05:25:06.626Z,17.17
2018-08-06T05:27:35.808Z,17.20
2018-08-06T05:30:07.609Z,16.87
2018-08-06T05:32:36.799Z,17.33
2018-08-06T05:35:06.118Z,16.70
2018-08-06T05:37:35.337Z,17.03
2018-08-06T05:40:05.207Z,16.80
2018-08-06T05:42:34.366Z,15.30
2018-08-06T05:45:03.588Z,15.37
2018-08-06T05:47:32.804Z,14.90
2018-08-06T05:50:01.993Z,14.87
2018-08-06T05:52:31.244Z,14.83
2018-08-06T05:55:00.501Z,14.47
2018-08-06T05:57:29.650Z,14.13
2018-08-06T05:59:58.878Z,15.07
2018-08-06T06:02:28.230Z,13.37
2018-08-06T06:04:57.401Z,13.90
2018-08-06T06:07:26.704Z,13.73
2018-08-06T06:09:55.984Z,12.20
2018-08-06T06:12:25.183Z,12.40
2018-08-06T06:14:54.444Z,12.90
2018-08-06T06:17:23.648Z,12.27
2018-08-06T06:19:52.873Z,11.37
2018-08-06T06:22:22.176Z,10.53
2018-08-06T06:24:51.384Z,11.17
2018-08-06T06:27:21.284Z,11.07
2018-08-06T06:29:50.557Z,9.80
2018-08-06T06:32:19.872Z,9.83
2018-08-06T06:34:49.052Z,8.97
2018-08-06T06:37:18.372Z,12.13
2018-08-06T06:39:47.605Z,11.43
2018-08-06T06:42:16.757Z,11.63
2018-08-06T06:44:45.947Z,9.83
2018-08-06T06:47:15.449Z,8.77
2018-08-06T06:49:44.591Z,9.23
2018-08-06T06:52:13.896Z,9.53
2018-08-06T06:54:43.831Z,9.70
2018-08-06T06:57:15.994Z,9.70
2018-08-06T06:59:45.121Z,9.87
2018-08-06T07:02:14.308Z,9.63
2018-08-06T07:04:43.499Z,9.33
2018-08-06T07:07:12.628Z,8.23
2018-08-06T07:09:41.771Z,8.97
2018-08-06T07:12:10.927Z,8.40
2018-08-06T07:14:40.256Z,8.03
2018-08-06T07:17:09.432Z,10.40
2018-08-06T07:19:38.627Z,7.77
2018-08-06T07:22:07.801Z,8.70
2018-08-06T07:24:37.111Z,8.13
2018-08-06T07:27:06.325Z,8.37
2018-08-06T07:29:37.160Z,8.00
2018-08-06T07:32:06.422Z,6.50
2018-08-06T07:34:35.602Z,6.03
2018-08-06T07:37:05.047Z,5.40
2018-08-06T07:39:34.319Z,6.57
2018-08-06T07:42:03.494Z,5.70
2018-08-06T07:44:32.738Z,6.23
2018-08-06T07:47:02.465Z,6.73
2018-08-06T07:49:31.908Z,5.63
2018-08-06T07:52:01.028Z,5.70
2018-08-06T07:54:30.348Z,7.67
2018-08-06T07:56:59.507Z,9.03
2018-08-06T07:59:28.719Z,6.00
2018-08-06T08:01:58.031Z,7.37
2018-08-06T08:04:27.254Z,5.00
2018-08-06T08:06:56.435Z,5.13
2018-08-06T08:09:25.644Z,5.27
2018-08-06T08:11:54.917Z,7.13
2018-08-06T08:14:24.347Z,5.80
2018-08-06T08:16:53.575Z,7.13
2018-08-06T08:19:22.989Z,5.43
2018-08-06T08:21:52.164Z,3.77
2018-08-06T08:24:21.434Z,5.27
2018-08-06T08:26:50.701Z,6.53
2018-08-06T08:29:19.980Z,6.70
2018-08-06T08:31:49.720Z,4.80
2018-08-06T08:34:18.954Z,7.03
2018-08-06T08:36:48.160Z,5.67
2018-08-06T08:39:17.317Z,5.00
2018-08-06T08:41:46.493Z,3.90
2018-08-06T08:44:15.764Z,3.47
2018-08-06T08:46:45.036Z,3.17
2018-08-06T08:49:14.247Z,3.10
2018-08-06T08:51:43.467Z,5.93
2018-08-06T08:54:12.687Z,3.53
2018-08-06T08:56:41.864Z,2.37
2018-08-06T08:59:11.111Z,6.23
2018-08-06T09:01:40.314Z,3.57
2018-08-06T09:04:09.490Z,3.30
2018-08-06T09:06:38.685Z,3.07
2018-08-06T09:09:10.370Z,5.27
2018-08-06T09:11:39.505Z,2.80
2018-08-06T09:14:08.789Z,3.03
2018-08-06T09:16:37.880Z,4.30
2018-08-06T09:19:07.045Z,4.07
2018-08-06T09:21:36.269Z,2.83
2018-08-06T09:24:05.548Z,2.50
2018-08-06T09:26:34.752Z,3.40
2018-08-06T09:29:04.006Z,3.27
2018-08-06T09:31:33.224Z,2.93
2018-08-06T09:34:03.201Z,5.53
2018-08-06T09:36:32.404Z,3.93
2018-08-06T09:39:01.639Z,2.63
2018-08-06T09:41:37.679Z,3.87
2018-08-06T09:44:07.330Z,3.50
2018-08-06T09:46:37.567Z,4.03
2018-08-06T09:49:07.412Z,4.80
2018-08-06T09:51:36.782Z,5.40
2018-08-06T09:54:05.981Z,4.10
2018-08-06T09:56:35.224Z,3.23
2018-08-06T09:59:04.722Z,3.47
2018-08-06T10:01:39.245Z,6.07
2018-08-06T10:04:08.607Z,4.93
2018-08-06T10:06:38.093Z,3.07
2018-08-06T10:09:09.140Z,2.70
2018-08-06T10:11:38.562Z,2.43
2018-08-06T10:14:08.472Z,5.37
2018-08-06T10:16:37.758Z,4.50
2018-08-06T10:19:07.082Z,2.60
2018-08-06T10:21:36.637Z,3.77
2018-08-06T10:24:06.324Z,2.70
2018-08-06T10:26:35.551Z,2.70
2018-08-06T10:29:04.831Z,4.10
2018-08-06T10:31:34.115Z,5.10
2018-08-06T10:34:03.380Z,2.70
2018-08-06T10:36:32.558Z,2.62
2018-08-06T10:39:01.752Z,2.87
2018-08-06T10:41:31.044Z,3.22
2018-08-06T10:44:00.212Z,3.12
2018-08-06T10:46:29.407Z,3.25
2018-08-06T10:48:58.649Z,5.53
2018-08-06T10:51:27.972Z,6.08
2018-08-06T10:53:57.142Z,6.17
2018-08-06T10:56:26.307Z,3.90
2018-08-06T10:58:55.513Z,2.27
2018-08-06T11:01:24.757Z,2.40
2018-08-06T11:03:53.998Z,3.80
2018-08-06T11:06:23.246Z,3.35
2018-08-06T11:08:52.480Z,3.70
2018-08-06T11:11:21.702Z,2.52
2018-08-06T11:13:50.947Z,2.12
2018-08-06T11:16:20.368Z,2.30
2018-08-06T11:18:49.666Z,3.33
2018-08-06T11:21:19.806Z,2.42
2018-08-06T11:23:48.639Z,3.67
2018-08-06T11:26:17.727Z,3.15
2018-08-06T11:28:46.963Z,2.20
2018-08-06T11:31:17.238Z,4.37
2018-08-06T11:33:46.608Z,2.65
2018-08-06T11:36:15.779Z,2.50
2018-08-06T11:38:45.070Z,2.20
2018-08-06T11:41:14.240Z,3.08
2018-08-06T11:43:43.432Z,5.20
2018-08-06T11:46:12.712Z,2.58
2018-08-06T11:48:41.963Z,5.45
2018-08-06T11:51:11.167Z,2.15
2018-08-06T11:53:40.387Z,2.80
2018-08-06T11:56:09.622Z,2.47
2018-08-06T11:58:38.839Z,2.45
2018-08-06T12:01:08.320Z,3.12
2018-08-06T12:03:37.564Z,3.35
2018-08-06T12:06:06.856Z,4.05
2018-08-06T12:08:36.803Z,2.60
2018-08-06T12:11:06.056Z,4.22
2018-08-06T12:13:35.237Z,2.92
2018-08-06T12:16:04.468Z,7.12
2018-08-06T12:18:33.671Z,4.97
2018-08-06T12:21:02.942Z,3.35
2018-08-06T12:23:32.021Z,3.37
2018-08-06T12:26:01.337Z,3.50
2018-08-06T12:28:30.450Z,3.65
2018-08-06T12:30:59.664Z,2.98
2018-08-06T12:33:28.990Z,5.30
2018-08-06T12:35:58.173Z,2.45
2018-08-06T12:38:37.463Z,2.95
2018-08-06T12:41:12.433Z,2.08
2018-08-06T12:43:42.228Z,5.55
2018-08-06T12:46:11.561Z,2.52
2018-08-06T12:48:40.795Z,3.52
2018-08-06T12:51:09.995Z,3.35
2018-08-06T12:53:39.219Z,6.42
2018-08-06T12:56:08.480Z,1.92
2018-08-06T12:58:37.612Z,2.30
2018-08-06T13:01:06.821Z,1.90
2018-08-06T13:03:35.976Z,5.67
2018-08-06T13:06:05.648Z,2.15
2018-08-06T13:08:34.851Z,3.65
2018-08-06T13:11:03.722Z,4.03
2018-08-06T13:13:33.084Z,3.67
2018-08-06T13:16:02.024Z,2.92
2018-08-06T13:18:30.894Z,2.83
2018-08-06T13:21:00.045Z,2.37
2018-08-06T13:23:29.334Z,4.72
2018-08-06T13:25:58.516Z,4.20
2018-08-06T13:28:27.713Z,3.65
2018-08-06T13:30:56.965Z,3.75
2018-08-06T13:33:25.873Z,2.62
2018-08-06T13:35:55.117Z,1.90
2018-08-06T13:38:24.428Z,2.37
2018-08-06T13:40:53.639Z,3.95
2018-08-06T13:43:22.844Z,3.30
2018-08-06T13:45:52.136Z,2.67
2018-08-06T13:48:21.298Z,2.20
2018-08-06T13:50:50.496Z,2.75
2018-08-06T13:53:19.810Z,1.92
2018-08-06T13:55:48.987Z,3.98
2018-08-06T13:58:18.293Z,4.35
2018-08-06T14:00:47.504Z,4.08
2018-08-06T14:03:16.710Z,2.87
2018-08-06T14:05:45.878Z,2.65
2018-08-06T14:08:15.074Z,3.87
2018-08-06T14:10:44.283Z,1.95
2018-08-06T14:13:13.441Z,3.98
2018-08-06T14:15:42.679Z,4.12
2018-08-06T14:18:11.858Z,3.08
2018-08-06T14:20:41.078Z,3.67
2018-08-06T14:23:10.296Z,2.05
2018-08-06T14:25:39.536Z,3.87
2018-08-06T14:28:08.834Z,3.33
2018-08-06T14:30:38.157Z,2.25
2018-08-06T14:33:07.456Z,2.45
2018-08-06T14:35:36.775Z,2.37
2018-08-06T14:38:06.740Z,4.85
2018-08-06T14:40:35.979Z,2.65
2018-08-06T14:43:05.382Z,1.77
2018-08-06T14:45:34.588Z,2.15
2018-08-06T14:48:06.874Z,3.30
2018-08-06T14:50:36.093Z,4.37
2018-08-06T14:53:05.415Z,2.02
2018-08-06T14:55:34.682Z,2.05
2018-08-06T14:58:04.074Z,2.40
2018-08-06T15:00:33.218Z,3.45
2018-08-06T15:03:02.550Z,3.25
2018-08-06T15:05:31.872Z,3.72
2018-08-06T15:08:01.258Z,2.55
2018-08-06T15:10:30.422Z,4.37
2018-08-06T15:12:59.630Z,2.10
2018-08-06T15:15:28.878Z,1.42
2018-08-06T15:17:58.099Z,4.15
2018-08-06T15:20:27.405Z,2.12
2018-08-06T15:22:56.610Z,3.27
2018-08-06T15:25:25.918Z,3.75
2018-08-06T15:27:55.053Z,1.82
2018-08-06T15:30:24.301Z,2.55
2018-08-06T15:32:53.520Z,1.90
2018-08-06T15:35:22.746Z,2.12
2018-08-06T15:37:51.928Z,2.47
2018-08-06T15:40:21.389Z,1.77
2018-08-06T15:42:50.652Z,3.00
2018-08-06T15:45:19.939Z,7.22
2018-08-06T15:47:49.184Z,5.53
2018-08-06T15:50:19.427Z,6.17
2018-08-06T15:52:48.601Z,4.72
2018-08-06T15:55:17.895Z,3.75
2018-08-06T15:57:47.196Z,3.55
2018-08-06T16:00:17.633Z,6.58
2018-08-06T16:02:47.223Z,6.08
2018-08-06T16:05:16.513Z,6.87
2018-08-06T16:07:46.867Z,7.15
2018-08-06T16:10:16.450Z,4.25
2018-08-06T16:12:45.590Z,8.47
2018-08-06T16:15:15.589Z,6.50
2018-08-06T16:17:47.736Z,4.17
2018-08-06T16:20:18.179Z,4.87
2018-08-06T16:22:47.467Z,4.90
2018-08-06T16:25:16.824Z,6.30
2018-08-06T16:27:45.989Z,5.87
2018-08-06T16:30:20.429Z,5.53
2018-08-06T16:32:50.075Z,4.77
2018-08-06T16:35:20.808Z,2.97
2018-08-06T16:37:51.122Z,4.73
2018-08-06T16:40:20.316Z,3.53
2018-08-06T16:42:50.237Z,5.07
2018-08-06T16:45:19.521Z,4.00
2018-08-06T16:47:48.824Z,3.73
2018-08-06T16:50:18.759Z,4.60
2018-08-06T16:52:48.072Z,3.80
2018-08-06T16:55:17.261Z,4.77
2018-08-06T16:57:46.480Z,6.23
2018-08-06T17:00:18.534Z,6.30
2018-08-06T17:02:48.129Z,9.97
2018-08-06T17:05:17.444Z,3.77
2018-08-06T17:07:47.493Z,7.23
2018-08-06T17:10:18.585Z,6.77
2018-08-06T17:12:48.990Z,5.73
2018-08-06T17:15:20.265Z,7.07
2018-08-06T17:17:50.413Z,9.50
2018-08-06T17:20:20.965Z,6.63
2018-08-06T17:22:50.921Z,5.57
2018-08-06T17:25:20.354Z,9.80
2018-08-06T17:27:49.568Z,7.50
2018-08-06T17:30:18.980Z,9.67
2018-08-06T17:32:48.238Z,6.60
2018-08-06T17:35:17.559Z,4.87
2018-08-06T17:37:46.835Z,4.20
2018-08-06T17:40:18.592Z,5.17
2018-08-06T17:42:48.105Z,4.90
2018-08-06T17:45:20.124Z,4.47
2018-08-06T17:47:49.428Z,4.33
2018-08-06T17:50:20.091Z,3.60
2018-08-06T17:52:50.353Z,4.93
2018-08-06T17:55:20.443Z,3.00
2018-08-06T17:57:49.625Z,4.30
2018-08-06T18:00:19.204Z,3.37
2018-08-06T18:02:48.455Z,4.13
2018-08-06T18:05:18.129Z,8.27
2018-08-06T18:07:47.457Z,5.53
2018-08-06T18:10:17.492Z,4.67
2018-08-06T18:12:47.125Z,5.77
2018-08-06T18:15:16.305Z,9.20
2018-08-06T18:17:45.583Z,9.60
2018-08-06T18:20:16.442Z,6.23
2018-08-06T18:22:45.772Z,5.50
2018-08-06T18:25:16.582Z,4.30
2018-08-06T18:27:46.753Z,3.47
2018-08-06T18:30:17.926Z,3.33
2018-08-06T18:32:47.186Z,6.00
2018-08-06T18:35:17.555Z,6.80
2018-08-06T18:37:46.749Z,3.90
2018-08-06T18:40:17.249Z,5.90
2018-08-06T18:42:46.881Z,3.67
2018-08-06T18:45:18.435Z,6.83
2018-08-06T18:47:48.650Z,8.77
2018-08-06T18:50:18.589Z,9.30
2018-08-06T18:52:49.140Z,10.73
2018-08-06T18:55:18.586Z,8.07
2018-08-06T18:57:48.114Z,7.40
2018-08-06T19:00:23.809Z,8.33
2018-08-06T19:02:53.514Z,5.67
2018-08-06T19:05:22.961Z,5.20
2018-08-06T19:07:52.464Z,4.07
2018-08-06T19:10:21.875Z,4.27
2018-08-06T19:12:56.312Z,4.63
2018-08-06T19:15:25.503Z,5.93
2018-08-06T19:18:00.078Z,5.00
2018-08-06T19:20:29.798Z,5.50
2018-08-06T19:22:59.086Z,7.70
2018-08-06T19:25:29.953Z,4.40
2018-08-06T19:27:59.128Z,11.07
2018-08-06T19:30:33.537Z,14.27
2018-08-06T19:33:02.911Z,24.87
2018-08-06T19:35:32.176Z,25.40
2018-08-06T19:38:01.550Z,21.00
2018-08-06T19:40:31.010Z,22.87
2018-08-06T19:43:05.816Z,16.47
2018-08-06T19:45:35.289Z,19.60
2018-08-06T19:48:04.784Z,15.33
2018-08-06T19:50:39.070Z,14.33
2018-08-06T19:53:08.611Z,9.13
2018-08-06T19:55:43.207Z,9.80
2018-08-06T19:58:12.469Z,6.60
2018-08-06T20:00:41.705Z,6.87
2018-08-06T20:03:10.924Z,8.63
2018-08-06T20:05:40.126Z,6.17
2018-08-06T20:08:09.355Z,5.93
2018-08-06T20:10:38.533Z,5.90
2018-08-06T20:13:08.270Z,11.13
2018-08-06T20:15:38.066Z,5.07
2018-08-06T20:18:07.239Z,5.53
2018-08-06T20:20:36.068Z,7.67
2018-08-06T20:23:05.411Z,6.77
2018-08-06T20:25:34.583Z,6.33
2018-08-06T20:28:03.874Z,6.00
2018-08-06T20:30:33.090Z,7.63
2018-08-06T20:33:02.243Z,7.30
2018-08-06T20:35:31.571Z,8.03
2018-08-06T20:38:00.632Z,5.73
2018-08-06T20:40:29.734Z,8.27
2018-08-06T20:42:58.792Z,6.37
2018-08-06T20:45:28.020Z,6.63
2018-08-06T20:47:57.254Z,10.00
2018-08-06T20:50:26.386Z,6.27
2018-08-06T20:52:55.734Z,8.13
2018-08-06T20:55:24.953Z,7.93
2018-08-06T20:57:54.170Z,6.33
2018-08-06T21:00:25.259Z,7.57
2018-08-06T21:02:54.648Z,6.70
2018-08-06T21:05:23.796Z,7.37
2018-08-06T21:07:52.950Z,6.87
2018-08-06T21:10:22.229Z,5.93
2018-08-06T21:12:51.419Z,7.30
2018-08-06T21:15:20.645Z,5.97
2018-08-06T21:17:49.849Z,5.50
2018-08-06T21:20:19.747Z,7.07
2018-08-06T21:22:49.709Z,5.43
2018-08-06T21:25:18.923Z,5.60
2018-08-06T21:27:48.825Z,6.50
2018-08-06T21:30:21.574Z,7.40
2018-08-06T21:32:54.063Z,6.97
2018-08-06T21:35:24.591Z,7.63
2018-08-06T21:37:54.615Z,7.03
2018-08-06T21:40:24.639Z,7.63
2018-08-06T21:42:53.834Z,7.50
2018-08-06T21:45:22.957Z,8.07
2018-08-06T21:47:52.168Z,6.57
2018-08-06T21:50:21.361Z,7.70
2018-08-06T21:52:50.539Z,7.63
2018-08-06T21:55:19.861Z,10.57
2018-08-06T21:57:49.007Z,7.33
2018-08-06T22:00:35.314Z,7.60
2018-08-06T22:03:11.185Z,7.37
2018-08-06T22:05:40.507Z,8.07
2018-08-06T22:08:09.803Z,7.40
2018-08-06T22:10:38.998Z,7.27
2018-08-06T22:13:08.806Z,10.07
2018-08-06T22:15:38.397Z,7.87
2018-08-06T22:18:08.929Z,7.83
2018-08-06T22:20:38.134Z,7.50
2018-08-06T22:23:07.493Z,7.20
2018-08-06T22:25:36.751Z,7.63
2018-08-06T22:28:07.247Z,7.07
2018-08-06T22:30:37.225Z,7.53
2018-08-06T22:33:07.111Z,7.20
2018-08-06T22:35:36.321Z,7.07
2018-08-06T22:38:05.683Z,7.83
2018-08-06T22:40:34.814Z,7.90
2018-08-06T22:43:04.156Z,7.13
2018-08-06T22:45:33.336Z,7.10
2018-08-06T22:48:02.497Z,7.83
2018-08-06T22:50:31.712Z,8.20
2018-08-06T22:53:00.909Z,7.60
2018-08-06T22:55:35.757Z,7.97
2018-08-06T22:58:04.993Z,8.40
2018-08-06T23:00:34.201Z,9.80
2018-08-06T23:03:03.427Z,8.93
2018-08-06T23:05:32.614Z,8.30
2018-08-06T23:08:01.752Z,7.40
2018-08-06T23:10:30.985Z,7.63
2018-08-06T23:13:00.147Z,7.43
2018-08-06T23:15:29.445Z,8.43
2018-08-06T23:17:58.639Z,7.90
2018-08-06T23:20:28.447Z,7.47
2018-08-06T23:22:57.590Z,7.97
2018-08-06T23:25:26.889Z,6.83
2018-08-06T23:27:56.066Z,7.20
2018-08-06T23:30:25.212Z,6.97
2018-08-06T23:33:00.852Z,7.07
2018-08-06T23:35:30.230Z,7.83
2018-08-06T23:37:59.417Z,10.43
2018-08-06T23:40:28.712Z,8.40
2018-08-06T23:42:57.858Z,8.27
2018-08-06T23:45:27.037Z,8.53
2018-08-06T23:47:56.282Z,7.70
2018-08-06T23:50:25.458Z,8.00
2018-08-06T23:52:54.656Z,7.27
2018-08-06T23:55:23.828Z,7.60
2018-08-06T23:57:53.065Z,8.00
